createdAt,value
2022-08-17T00:01:44.924Z,18.20
2022-08-17T00:04:20.224Z,18.36
2022-08-17T00:06:49.254Z,18.12
2022-08-17T00:09:18.387Z,18.24
2022-08-17T00:12:40.387Z,18.22
2022-08-17T00:14:33.981Z,18.14
2022-08-17T00:17:00.798Z,18.23
2022-08-17T00:19:27.447Z,17.90
2022-08-17T00:22:33.947Z,17.98
2022-08-17T00:24:44.963Z,18.05
2022-08-17T00:27:11.755Z,18.05
2022-08-17T00:29:38.376Z,18.05
2022-08-17T00:33:12.432Z,17.79
2022-08-17T00:34:52.875Z,17.66
2022-08-17T00:37:19.500Z,17.78
2022-08-17T00:39:46.232Z,17.81
2022-08-17T00:42:19.333Z,17.77
2022-08-17T00:44:46.025Z,17.64
2022-08-17T00:47:12.661Z,17.52
2022-08-17T00:49:39.638Z,17.51
2022-08-17T00:52:15.515Z,17.68
2022-08-17T00:54:47.159Z,17.60
2022-08-17T00:57:16.956Z,17.55
2022-08-17T01:00:01.663Z,17.57
2022-08-17T01:02:40.346Z,17.46
2022-08-17T01:05:14.983Z,17.44
2022-08-17T01:07:43.089Z,17.43
2022-08-17T01:10:59.084Z,17.32
2022-08-17T01:13:02.613Z,17.34
2022-08-17T01:15:32.001Z,17.19
2022-08-17T01:17:58.899Z,17.15
2022-08-17T01:20:25.941Z,17.22
2022-08-17T01:22:53.506Z,17.14
2022-08-17T01:25:21.437Z,17.00
2022-08-17T01:27:49.824Z,16.93
2022-08-17T01:30:56.994Z,17.14
2022-08-17T01:33:04.447Z,17.05
2022-08-17T01:35:31.332Z,17.07
2022-08-17T01:37:57.962Z,17.14
2022-08-17T01:40:36.030Z,17.16
2022-08-17T01:43:14.482Z,17.12
2022-08-17T01:45:47.595Z,17.10
2022-08-17T01:48:14.687Z,17.05
2022-08-17T01:50:44.667Z,16.98
2022-08-17T01:53:18.244Z,16.83
2022-08-17T01:55:52.513Z,16.85
2022-08-17T01:58:19.876Z,16.83
2022-08-17T02:01:00.884Z,16.93
2022-08-17T02:03:28.173Z,16.65
2022-08-17T02:05:55.323Z,16.48
2022-08-17T02:08:37.337Z,16.78
2022-08-17T02:11:19.981Z,16.82
2022-08-17T02:13:49.314Z,16.72
2022-08-17T02:16:24.775Z,16.59
2022-08-17T02:18:54.209Z,16.73
2022-08-17T02:21:20.807Z,16.49
2022-08-17T02:23:49.023Z,16.41
2022-08-17T02:26:25.945Z,16.50
2022-08-17T02:28:53.708Z,16.45
2022-08-17T02:31:21.404Z,16.48
2022-08-17T02:34:03.396Z,16.33
2022-08-17T02:36:34.202Z,16.35
2022-08-17T02:39:03.538Z,16.41
2022-08-17T02:41:30.554Z,16.45
2022-08-17T02:43:57.232Z,16.34
2022-08-17T02:46:23.888Z,16.35
2022-08-17T02:48:51.712Z,16.39
2022-08-17T02:51:19.573Z,16.31
2022-08-17T02:53:46.856Z,16.29
2022-08-17T02:56:13.680Z,16.21
2022-08-17T02:58:40.327Z,15.99
2022-08-17T03:01:09.245Z,16.23
2022-08-17T03:03:37.297Z,16.26
2022-08-17T03:06:04.763Z,16.18
2022-08-17T03:08:31.813Z,16.13
2022-08-17T03:11:01.698Z,16.18
2022-08-17T03:13:28.499Z,16.05
2022-08-17T03:15:55.129Z,15.78
2022-08-17T03:18:25.801Z,15.94
2022-08-17T03:20:59.159Z,15.83
2022-08-17T03:23:27.630Z,15.95
2022-08-17T03:25:56.511Z,15.77
2022-08-17T03:28:24.446Z,15.74
2022-08-17T03:30:51.902Z,15.70
2022-08-17T03:33:19.406Z,15.54
2022-08-17T03:35:47.169Z,15.74
2022-08-17T03:38:17.077Z,15.87
2022-08-17T03:40:57.161Z,15.79
2022-08-17T03:43:26.964Z,15.60
2022-08-17T03:46:34.332Z,15.66
2022-08-17T03:49:17.392Z,15.66
2022-08-17T03:52:02.271Z,15.78
2022-08-17T03:54:54.727Z,15.73
2022-08-17T03:57:21.686Z,15.61
2022-08-17T03:59:48.430Z,15.53
2022-08-17T04:02:27.108Z,15.72
2022-08-17T04:04:54.517Z,15.69
2022-08-17T04:07:24.440Z,15.60
2022-08-17T04:09:51.575Z,15.48
2022-08-17T04:12:20.851Z,15.48
2022-08-17T04:14:53.330Z,15.37
2022-08-17T04:17:27.919Z,15.48
2022-08-17T04:19:55.455Z,15.42
2022-08-17T04:22:30.894Z,15.42
2022-08-17T04:25:09.233Z,15.55
2022-08-17T04:27:36.490Z,15.54
2022-08-17T04:30:07.425Z,15.43
2022-08-17T04:32:59.462Z,15.49
2022-08-17T04:35:36.850Z,15.50
2022-08-17T04:38:04.202Z,15.45
2022-08-17T04:40:49.442Z,15.68
2022-08-17T04:43:21.896Z,15.77
2022-08-17T04:45:56.185Z,15.72
2022-08-17T04:48:29.844Z,15.74
2022-08-17T04:51:05.944Z,15.75
2022-08-17T04:53:32.732Z,15.63
2022-08-17T04:55:59.424Z,15.83
2022-08-17T04:58:26.034Z,15.94
2022-08-17T05:00:53.017Z,16.10
2022-08-17T05:03:19.750Z,16.08
2022-08-17T05:05:49.689Z,16.21
2022-08-17T05:08:18.695Z,16.60
2022-08-17T05:10:46.099Z,17.13
2022-08-17T05:13:19.758Z,18.56
2022-08-17T05:15:49.720Z,19.08
2022-08-17T05:18:17.491Z,19.77
2022-08-17T05:20:44.739Z,20.15
2022-08-17T05:23:15.305Z,20.49
2022-08-17T05:25:50.940Z,20.72
2022-08-17T05:28:19.088Z,21.28
2022-08-17T05:30:51.605Z,21.34
2022-08-17T05:33:27.461Z,21.04
2022-08-17T05:35:56.179Z,21.68
2022-08-17T05:38:24.655Z,22.27
2022-08-17T05:40:52.345Z,22.09
2022-08-17T05:43:20.889Z,21.95
2022-08-17T05:46:07.407Z,22.11
2022-08-17T05:48:40.440Z,22.46
2022-08-17T05:51:25.495Z,22.41
2022-08-17T05:54:20.854Z,22.98
2022-08-17T05:57:06.073Z,23.04
2022-08-17T06:00:07.596Z,24.04
2022-08-17T06:02:36.569Z,24.01
2022-08-17T06:05:12.740Z,24.41
2022-08-17T06:08:02.520Z,24.67
2022-08-17T06:10:57.351Z,25.16
2022-08-17T06:13:50.831Z,25.49
2022-08-17T06:16:33.689Z,24.98
2022-08-17T06:19:25.292Z,25.12
2022-08-17T06:21:54.910Z,25.55
2022-08-17T06:24:36.681Z,25.89
2022-08-17T06:27:25.071Z,25.77
2022-08-17T06:30:16.263Z,25.65
2022-08-17T06:32:45.825Z,25.81
2022-08-17T06:35:18.479Z,25.96
2022-08-17T06:37:48.933Z,26.07
2022-08-17T06:40:21.806Z,26.40
2022-08-17T06:43:06.093Z,26.32
2022-08-17T06:45:59.470Z,26.16
2022-08-17T06:48:37.769Z,25.97
2022-08-17T06:51:22.234Z,26.20
2022-08-17T06:54:06.624Z,25.87
2022-08-17T06:56:53.233Z,26.33
2022-08-17T06:59:54.311Z,26.63
2022-08-17T07:02:29.191Z,26.31
2022-08-17T07:05:13.850Z,26.67
2022-08-17T07:08:02.487Z,26.82
2022-08-17T07:10:43.154Z,27.19
2022-08-17T07:13:51.101Z,27.57
2022-08-17T07:16:33.806Z,27.72
2022-08-17T07:19:00.534Z,27.70
2022-08-17T07:21:56.387Z,27.74
2022-08-17T07:24:49.773Z,28.25
2022-08-17T07:27:24.125Z,28.09
2022-08-17T07:29:58.907Z,28.65
2022-08-17T07:32:31.576Z,28.72
2022-08-17T07:35:15.965Z,29.32
2022-08-17T07:37:55.611Z,29.38
2022-08-17T07:40:33.878Z,29.67
2022-08-17T07:43:23.773Z,28.91
2022-08-17T07:46:31.067Z,29.58
2022-08-17T07:49:18.992Z,30.42
2022-08-17T07:51:48.483Z,30.49
2022-08-17T07:54:15.165Z,30.82
2022-08-17T07:57:02.146Z,30.28
2022-08-17T07:59:30.567Z,30.75
2022-08-17T08:02:08.091Z,30.80
2022-08-17T08:04:59.767Z,30.94
2022-08-17T08:07:36.025Z,30.74
2022-08-17T08:10:10.235Z,31.12
2022-08-17T08:12:49.037Z,31.72
2022-08-17T08:15:33.213Z,31.87
2022-08-17T08:18:03.170Z,31.69
2022-08-17T08:20:53.321Z,31.59
2022-08-17T08:23:35.044Z,31.35
2022-08-17T08:26:07.357Z,31.09
2022-08-17T08:28:40.557Z,31.94
2022-08-17T08:31:27.366Z,32.11
2022-08-17T08:34:09.215Z,32.41
2022-08-17T08:37:15.395Z,32.62
2022-08-17T08:40:08.529Z,32.97
2022-08-17T08:43:09.228Z,32.98
2022-08-17T08:46:08.001Z,33.00
2022-08-17T08:48:57.878Z,32.93
2022-08-17T08:51:37.510Z,32.64
2022-08-17T08:54:16.560Z,32.46
2022-08-17T08:57:21.571Z,32.66
2022-08-17T08:59:58.625Z,33.13
2022-08-17T09:02:46.834Z,33.46
2022-08-17T09:05:32.187Z,33.39
2022-08-17T09:08:01.744Z,33.05
2022-08-17T09:10:49.636Z,33.02
2022-08-17T09:13:16.285Z,33.50
2022-08-17T09:15:47.974Z,33.59
2022-08-17T09:19:01.185Z,33.51
2022-08-17T09:21:33.934Z,33.50
2022-08-17T09:24:37.225Z,33.15
2022-08-17T09:27:13.859Z,33.60
2022-08-17T09:29:53.925Z,33.57
2022-08-17T09:32:44.899Z,33.91
2022-08-17T09:35:32.917Z,33.99
2022-08-17T09:38:30.444Z,33.75
2022-08-17T09:41:08.023Z,34.21
2022-08-17T09:43:54.447Z,34.08
2022-08-17T09:46:39.275Z,34.39
2022-08-17T09:49:32.152Z,34.38
2022-08-17T09:52:17.832Z,34.67
2022-08-17T09:54:45.879Z,34.48
2022-08-17T09:57:32.294Z,34.44
2022-08-17T10:00:25.601Z,34.18
2022-08-17T10:02:58.002Z,34.68
2022-08-17T10:05:51.318Z,34.42
2022-08-17T10:08:36.953Z,34.51
2022-08-17T10:11:16.093Z,34.66
2022-08-17T10:14:24.137Z,34.42
2022-08-17T10:17:11.903Z,33.99
2022-08-17T10:19:45.217Z,33.96
2022-08-17T10:22:49.895Z,34.71
2022-08-17T10:25:56.063Z,35.19
2022-08-17T10:28:30.549Z,35.43
2022-08-17T10:31:30.843Z,35.43
2022-08-17T10:34:05.157Z,35.73
2022-08-17T10:36:41.207Z,35.75
2022-08-17T10:39:14.606Z,35.23
2022-08-17T10:41:45.408Z,35.50
2022-08-17T10:44:35.478Z,35.44
2022-08-17T10:47:15.076Z,35.53
2022-08-17T10:49:54.451Z,35.44
2022-08-17T10:52:21.964Z,35.49
2022-08-17T10:54:51.377Z,35.62
2022-08-17T10:57:39.857Z,35.93
2022-08-17T11:00:35.310Z,35.39
2022-08-17T11:03:02.547Z,35.41
2022-08-17T11:05:34.170Z,35.46
2022-08-17T11:08:21.742Z,35.40
2022-08-17T11:11:24.421Z,35.59
2022-08-17T11:14:17.368Z,35.58
2022-08-17T11:16:53.307Z,34.90
2022-08-17T11:19:46.330Z,35.57
2022-08-17T11:22:45.010Z,35.38
2022-08-17T11:25:17.489Z,34.91
2022-08-17T11:27:47.174Z,35.34
2022-08-17T11:30:40.834Z,35.15
2022-08-17T11:33:29.423Z,35.60
2022-08-17T11:36:21.912Z,35.42
2022-08-17T11:39:04.209Z,35.31
2022-08-17T11:41:37.886Z,35.48
2022-08-17T11:44:05.600Z,35.29
2022-08-17T11:47:24.610Z,35.06
2022-08-17T11:50:36.703Z,35.31
2022-08-17T11:53:03.357Z,35.15
2022-08-17T11:55:41.776Z,35.48
2022-08-17T11:58:29.497Z,35.40
2022-08-17T12:01:12.349Z,35.72
2022-08-17T12:03:54.251Z,36.29
2022-08-17T12:06:24.852Z,36.06
2022-08-17T12:09:00.664Z,35.51
2022-08-17T12:11:56.276Z,35.48
2022-08-17T12:15:05.739Z,35.75
2022-08-17T12:17:41.327Z,35.14
2022-08-17T12:20:35.308Z,35.23
2022-08-17T12:23:45.383Z,35.18
2022-08-17T12:26:19.470Z,35.39
2022-08-17T12:28:49.170Z,35.67
2022-08-17T12:31:27.778Z,35.27
2022-08-17T12:33:54.808Z,35.30
2022-08-17T12:36:26.455Z,35.04
2022-08-17T12:39:12.878Z,35.48
2022-08-17T12:41:45.179Z,35.85
2022-08-17T12:44:12.323Z,35.52
2022-08-17T12:46:50.520Z,35.55
2022-08-17T12:49:22.999Z,35.50
2022-08-17T12:51:51.639Z,35.32
2022-08-17T12:54:30.516Z,35.47
2022-08-17T12:57:04.894Z,35.51
2022-08-17T12:59:33.209Z,35.29
2022-08-17T13:02:01.197Z,34.89
2022-08-17T13:04:29.541Z,35.12
2022-08-17T13:07:00.068Z,35.07
2022-08-17T13:09:36.070Z,34.91
2022-08-17T13:12:07.884Z,35.17
2022-08-17T13:14:35.453Z,35.65
2022-08-17T13:17:08.568Z,35.45
2022-08-17T13:19:49.484Z,35.42
2022-08-17T13:22:18.365Z,35.46
2022-08-17T13:24:54.778Z,35.57
2022-08-17T13:27:24.451Z,35.26
2022-08-17T13:29:55.873Z,35.60
2022-08-17T13:32:45.671Z,35.32
2022-08-17T13:35:39.989Z,35.09
2022-08-17T13:38:07.019Z,34.98
2022-08-17T13:40:53.265Z,35.06
2022-08-17T13:43:49.616Z,34.74
2022-08-17T13:46:24.357Z,35.00
2022-08-17T13:49:19.715Z,34.97
2022-08-17T13:51:49.538Z,34.80
2022-08-17T13:54:37.914Z,34.69
2022-08-17T13:57:17.139Z,34.87
2022-08-17T13:59:54.333Z,35.37
2022-08-17T14:02:25.952Z,35.04
2022-08-17T14:04:54.942Z,34.83
2022-08-17T14:07:27.336Z,35.30
2022-08-17T14:09:58.425Z,34.71
2022-08-17T14:12:27.250Z,34.66
2022-08-17T14:14:58.495Z,34.82
2022-08-17T14:17:28.805Z,34.91
2022-08-17T14:19:55.475Z,34.85
2022-08-17T14:22:30.503Z,34.72
2022-08-17T14:24:59.150Z,34.75
2022-08-17T14:27:28.563Z,34.83
2022-08-17T14:29:56.452Z,35.04
2022-08-17T14:32:30.212Z,34.74
2022-08-17T14:34:59.297Z,34.77
2022-08-17T14:37:28.052Z,34.87
2022-08-17T14:39:56.862Z,34.87
2022-08-17T14:42:25.448Z,34.77
2022-08-17T14:44:53.167Z,34.93
2022-08-17T14:47:20.457Z,35.21
2022-08-17T14:49:50.299Z,35.06
2022-08-17T14:52:21.643Z,34.79
2022-08-17T14:54:51.407Z,34.43
2022-08-17T14:57:33.710Z,34.37
2022-08-17T15:00:02.544Z,34.39
2022-08-17T15:02:30.880Z,34.30
2022-08-17T15:05:06.110Z,34.33
2022-08-17T15:07:32.878Z,34.13
2022-08-17T15:10:01.465Z,34.16
2022-08-17T15:12:33.051Z,33.99
2022-08-17T15:15:05.390Z,34.19
2022-08-17T15:17:44.298Z,34.18
2022-08-17T15:20:18.555Z,33.99
2022-08-17T15:22:49.460Z,34.05
2022-08-17T15:25:17.371Z,34.23
2022-08-17T15:27:44.165Z,34.39
2022-08-17T15:30:11.833Z,34.45
2022-08-17T15:32:40.982Z,34.59
2022-08-17T15:35:17.453Z,34.65
2022-08-17T15:37:44.709Z,34.62
2022-08-17T15:40:12.577Z,34.54
2022-08-17T15:42:41.089Z,34.32
2022-08-17T15:45:12.562Z,34.37
2022-08-17T15:47:40.160Z,34.40
2022-08-17T15:50:08.725Z,34.23
2022-08-17T15:52:40.169Z,34.28
2022-08-17T15:55:10.271Z,34.27
2022-08-17T15:57:37.003Z,34.24
2022-08-17T16:00:05.888Z,34.15
2022-08-17T16:03:14.651Z,34.11
2022-08-17T16:05:24.858Z,34.05
2022-08-17T16:07:52.716Z,34.14
2022-08-17T16:10:19.919Z,34.14
2022-08-17T16:12:48.788Z,34.03
2022-08-17T16:15:16.413Z,34.21
2022-08-17T16:17:43.307Z,34.12
2022-08-17T16:20:20.317Z,34.11
2022-08-17T16:22:49.424Z,34.18
2022-08-17T16:25:23.219Z,33.90
2022-08-17T16:28:09.892Z,33.59
2022-08-17T16:30:37.425Z,33.73
2022-08-17T16:33:05.048Z,33.70
2022-08-17T16:35:31.949Z,33.55
2022-08-17T16:37:58.868Z,33.60
2022-08-17T16:40:29.365Z,33.39
2022-08-17T16:42:57.929Z,33.29
2022-08-17T16:45:36.413Z,33.18
2022-08-17T16:48:03.636Z,33.13
2022-08-17T16:50:31.903Z,33.07
2022-08-17T16:53:06.498Z,32.93
2022-08-17T16:55:35.774Z,32.95
2022-08-17T16:58:06.893Z,32.82
2022-08-17T17:00:33.958Z,32.79
2022-08-17T17:03:19.172Z,32.78
2022-08-17T17:06:03.548Z,32.69
2022-08-17T17:08:48.942Z,32.78
2022-08-17T17:11:33.787Z,32.56
2022-08-17T17:14:04.939Z,32.45
2022-08-17T17:16:35.548Z,32.48
2022-08-17T17:19:35.242Z,32.44
2022-08-17T17:22:16.361Z,32.33
2022-08-17T17:24:51.858Z,32.10
2022-08-17T17:27:47.228Z,32.23
2022-08-17T17:30:20.801Z,32.19
2022-08-17T17:33:01.867Z,32.06
2022-08-17T17:35:34.591Z,31.99
2022-08-17T17:38:12.204Z,31.87
2022-08-17T17:40:43.920Z,31.81
2022-08-17T17:43:37.767Z,31.73
2022-08-17T17:46:27.267Z,31.53
2022-08-17T17:48:56.833Z,31.48
2022-08-17T17:51:54.808Z,31.36
2022-08-17T17:54:35.990Z,31.19
2022-08-17T17:57:24.776Z,31.29
2022-08-17T17:59:52.357Z,31.15
2022-08-17T18:02:51.547Z,30.98
2022-08-17T18:05:34.344Z,30.90
2022-08-17T18:08:19.897Z,30.75
2022-08-17T18:11:24.265Z,30.71
2022-08-17T18:14:20.368Z,30.35
2022-08-17T18:16:53.318Z,30.32
2022-08-17T18:19:20.736Z,30.19
2022-08-17T18:21:52.823Z,30.13
2022-08-17T18:24:40.518Z,29.95
2022-08-17T18:27:23.328Z,29.83
2022-08-17T18:29:53.325Z,29.76
2022-08-17T18:32:25.110Z,29.66
2022-08-17T18:35:03.092Z,29.60
2022-08-17T18:37:48.202Z,29.46
2022-08-17T18:40:17.841Z,29.31
2022-08-17T18:42:46.906Z,29.32
2022-08-17T18:45:13.636Z,29.24
2022-08-17T18:47:55.519Z,28.99
2022-08-17T18:50:33.601Z,28.83
2022-08-17T18:53:34.548Z,28.80
2022-08-17T18:56:30.921Z,28.63
2022-08-17T18:59:12.650Z,28.61
2022-08-17T19:01:47.173Z,28.56
2022-08-17T19:04:35.469Z,28.48
2022-08-17T19:07:25.269Z,28.40
2022-08-17T19:10:07.317Z,28.32
2022-08-17T19:12:47.276Z,28.15
2022-08-17T19:15:19.357Z,28.12
2022-08-17T19:17:55.507Z,28.06
2022-08-17T19:20:29.583Z,27.84
2022-08-17T19:23:05.395Z,27.79
2022-08-17T19:25:38.262Z,27.69
2022-08-17T19:28:58.207Z,27.56
2022-08-17T19:31:28.435Z,27.50
2022-08-17T19:33:57.143Z,27.43
2022-08-17T19:36:46.638Z,27.35
2022-08-17T19:39:41.474Z,27.30
2022-08-17T19:42:52.223Z,27.17
2022-08-17T19:45:57.074Z,26.97
2022-08-17T19:48:42.600Z,26.92
2022-08-17T19:51:35.890Z,26.81
2022-08-17T19:54:06.929Z,26.98
2022-08-17T19:56:43.411Z,26.65
2022-08-17T19:59:27.592Z,26.37
2022-08-17T20:02:25.302Z,26.25
2022-08-17T20:04:56.022Z,26.34
2022-08-17T20:07:29.043Z,26.15
2022-08-17T20:10:37.215Z,26.10
2022-08-17T20:13:10.181Z,26.27
2022-08-17T20:15:40.882Z,26.18
2022-08-17T20:18:16.041Z,26.14
2022-08-17T20:20:51.569Z,26.13
2022-08-17T20:24:15.928Z,26.13
2022-08-17T20:27:16.584Z,25.64
2022-08-17T20:29:55.096Z,25.92
2022-08-17T20:32:31.515Z,25.94
2022-08-17T20:35:09.471Z,25.98
2022-08-17T20:37:43.236Z,25.80
2022-08-17T20:40:09.886Z,25.83
2022-08-17T20:42:36.770Z,25.72
2022-08-17T20:45:24.207Z,25.65
2022-08-17T20:48:22.119Z,25.78
2022-08-17T20:50:46.287Z,25.59
2022-08-17T20:53:48.286Z,25.59
2022-08-17T20:56:43.368Z,25.53
2022-08-17T20:59:31.681Z,25.45
2022-08-17T21:02:17.707Z,25.30
2022-08-17T21:04:51.734Z,25.37
2022-08-17T21:07:42.932Z,25.09
2022-08-17T21:10:14.010Z,25.19
2022-08-17T21:12:48.047Z,25.00
2022-08-17T21:15:48.601Z,24.78
2022-08-17T21:18:18.470Z,24.93
2022-08-17T21:20:57.282Z,24.83
2022-08-17T21:23:59.124Z,24.57
2022-08-17T21:26:50.645Z,24.52
2022-08-17T21:29:31.151Z,24.64
2022-08-17T21:31:59.584Z,24.47
2022-08-17T21:34:45.114Z,24.34
2022-08-17T21:37:23.732Z,24.25
2022-08-17T21:39:58.161Z,24.31
2022-08-17T21:42:34.689Z,24.15
2022-08-17T21:45:21.740Z,24.14
2022-08-17T21:47:51.128Z,24.17
2022-08-17T21:50:25.776Z,24.09
2022-08-17T21:52:54.583Z,24.04
2022-08-17T21:55:29.434Z,24.09
2022-08-17T21:58:13.907Z,23.89
2022-08-17T22:00:41.287Z,23.77
2022-08-17T22:03:23.760Z,23.75
2022-08-17T22:05:51.649Z,23.83
2022-08-17T22:08:22.012Z,23.80
2022-08-17T22:10:51.129Z,23.75
2022-08-17T22:13:17.916Z,23.74
2022-08-17T22:16:29.002Z,23.71
2022-08-17T22:18:58.114Z,23.78
2022-08-17T22:21:25.309Z,23.70
2022-08-17T22:24:04.446Z,23.80
2022-08-17T22:27:02.212Z,23.69
2022-08-17T22:29:57.616Z,23.68
2022-08-17T22:32:41.710Z,23.40
2022-08-17T22:35:39.168Z,23.46
2022-08-17T22:38:21.133Z,23.42
2022-08-17T22:40:51.506Z,23.40
2022-08-17T22:43:26.102Z,23.41
2022-08-17T22:45:55.878Z,23.56
2022-08-17T22:48:27.251Z,23.55
2022-08-17T22:51:12.873Z,23.38
2022-08-17T22:54:08.248Z,23.42
2022-08-17T22:56:54.169Z,23.45
2022-08-17T22:59:54.885Z,23.36
2022-08-17T23:02:21.826Z,23.32
2022-08-17T23:05:14.371Z,23.45
2022-08-17T23:07:42.495Z,23.14
2022-08-17T23:10:11.444Z,23.33
2022-08-17T23:12:39.770Z,23.39
2022-08-17T23:15:15.839Z,23.22
2022-08-17T23:17:42.681Z,23.24
2022-08-17T23:20:15.140Z,23.30
2022-08-17T23:22:51.403Z,23.38
2022-08-17T23:25:27.098Z,23.35
2022-08-17T23:27:54.555Z,23.12
2022-08-17T23:30:25.691Z,22.99
2022-08-17T23:32:54.281Z,23.11
2022-08-17T23:35:39.845Z,23.11
2022-08-17T23:38:08.247Z,23.05
2022-08-17T23:40:34.911Z,22.88
2022-08-17T23:43:04.567Z,22.78
2022-08-17T23:45:36.731Z,22.77
2022-08-17T23:48:07.927Z,22.75
2022-08-17T23:50:35.589Z,22.44
2022-08-17T23:53:03.232Z,22.64
2022-08-17T23:55:34.577Z,22.64
2022-08-17T23:58:02.074Z,22.25
